TimeMDT,TemperatureF,Dew PointF,Humidity,Sea Level PressureIn,VisibilityMPH,Wind Direction,Wind SpeedMPH,Gust SpeedMPH,PrecipitationIn,Events,Conditions,WindDirDegrees,DateUTC
12:53 AM,46.9,45.0,93,30.01,10.0,West,8.1,-,N/A,,Clear,260,2013-09-24 06:53:00
1:53 AM,46.0,44.1,93,30.03,10.0,WSW,9.2,-,0.01,,Clear,240,2013-09-24 07:53:00
2:53 AM,48.9,46.0,90,30.01,10.0,WSW,8.1,-,N/A,,Clear,240,2013-09-24 08:53:00
3:53 AM,48.0,45.0,89,30.01,10.0,SW,8.1,-,N/A,,Clear,230,2013-09-24 09:53:00
4:53 AM,46.0,43.0,89,30.02,10.0,SW,8.1,-,N/A,,Clear,220,2013-09-24 10:53:00
5:53 AM,45.0,41.0,86,30.04,10.0,SW,9.2,-,N/A,,Clear,230,2013-09-24 11:53:00
6:53 AM,45.0,39.9,82,30.07,10.0,WSW,9.2,-,N/A,,Clear,240,2013-09-24 12:53:00
7:53 AM,51.1,43.0,74,30.08,10.0,WSW,6.9,-,N/A,,Clear,250,2013-09-24 13:53:00
8:53 AM,57.0,45.0,64,30.09,10.0,West,5.8,-,N/A,,Clear,260,2013-09-24 14:53:00
9:53 AM,62.1,44.1,52,30.08,10.0,WSW,3.5,-,N/A,,Clear,250,2013-09-24 15:53:00
10:53 AM,66.0,39.0,37,30.07,10.0,NNW,8.1,-,N/A,,Clear,330,2013-09-24 16:53:00
11:53 AM,66.9,39.0,36,30.05,10.0,North,8.1,-,N/A,,Clear,350,2013-09-24 17:53:00
12:53 PM,66.9,37.9,34,30.03,10.0,Calm,Calm,-,N/A,,Clear,0,2013-09-24 18:53:00
1:53 PM,69.1,39.9,35,29.99,10.0,South,10.4,-,N/A,,Clear,190,2013-09-24 19:53:00
2:53 PM,71.1,39.9,32,29.95,10.0,SSE,13.8,21.9,N/A,,Clear,150,2013-09-24 20:53:00
3:53 PM,72.0,37.0,28,29.92,10.0,South,18.4,24.2,N/A,,Clear,190,2013-09-24 21:53:00
4:53 PM,71.1,37.0,29,29.91,10.0,SSE,15.0,24.2,N/A,,Clear,150,2013-09-24 22:53:00
5:53 PM,69.1,37.0,31,29.91,10.0,SSE,12.7,-,N/A,,Clear,150,2013-09-24 23:53:00
6:53 PM,61.0,44.1,54,29.92,10.0,SSE,11.5,-,N/A,,Clear,150,2013-09-25 00:53:00
7:53 PM,59.0,43.0,55,29.90,10.0,SE,12.7,-,N/A,,Clear,140,2013-09-25 01:53:00
8:53 PM,57.9,42.1,56,29.88,10.0,SSE,15.0,-,N/A,,Clear,160,2013-09-25 02:53:00
9:53 PM,53.1,43.0,69,29.86,10.0,SSE,9.2,-,N/A,,Clear,160,2013-09-25 03:53:00
10:53 PM,54.0,39.9,59,29.84,10.0,SSE,15.0,-,N/A,,Clear,160,2013-09-25 04:53:00
11:53 PM,55.0,39.0,55,29.81,10.0,SSE,17.3,24.2,N/A,,Clear,160,2013-09-25 05:53:00